Alberta, Virginia
Current Conditions -  °F | °C
As of 1:35 PM on Saturday 25 Oct 2014 (Local Time) from KLVL Reporting Station
Clear Clear  
Wind Chill: 66°   Ceiling: Unl
Heat Index: 66°   Visibility: 10mi
Dew Point: 44°   Wind: 5mph
Humidity: 44%   Direction: 220°SW
Pressure: 29.93"   Gusts: NA
Location:  36.87°N, 77.89°W
Report Text: KLVL 251735Z AUTO 22004KT 10SM CLR 19/07 A2993 RMK AO1 T01900065
Loading
Personal Weather Stations






























Interactive Weather Map New forecast layout! Learn more

10-Day Weather Forecast

Advertisements
Track Severe Weather on mobile